Time;durP1;ratioP1;P1;durP2;ratioP2;P2;SDS_P1;SDS_P2;PMS_P1;PMS_P2;Temp;Humidity;BMP_temperature;BMP_pressure;BME280_temperature;BME280_humidity;BME280_pressure;Samples;Min_cycle;Max_cycle;Signal;HPM_P1;HPM_P2
2023/03/21 00:01:14;;;;;;;130.95;38.35;;;9.30;99.90;;;;;;6234935;23;20004;-58
2023/03/21 00:03:45;;;;;;;140.48;39.47;;;9.30;99.90;;;;;;6211456;23;20524;-59
2023/03/21 00:06:12;;;;;;;135.77;39.33;;;9.30;99.90;;;;;;6210984;23;20009;-58
2023/03/21 00:08:38;;;;;;;126.55;37.33;;;9.30;99.90;;;;;;6208718;23;20103;-59
2023/03/21 00:11:06;;;;;;;118.75;36.17;;;9.30;99.90;;;;;;6211335;23;20017;-59
2023/03/21 00:13:37;;;;;;;107.93;33.75;;;9.20;99.90;;;;;;6208074;23;20374;-59
2023/03/21 00:16:16;;;;;;;118.18;35.95;;;9.20;99.90;;;;;;6211439;23;20477;-59
2023/03/21 00:18:47;;;;;;;127.28;35.78;;;9.20;99.90;;;;;;6185361;23;20040;-57
2023/03/21 00:21:18;;;;;;;132.63;36.55;;;9.20;99.90;;;;;;6184232;23;20021;-58
2023/03/21 00:23:45;;;;;;;132.93;38.20;;;9.20;99.90;;;;;;6212181;23;20043;-59
2023/03/21 00:26:11;;;;;;;146.35;39.65;;;9.20;99.90;;;;;;6211277;23;20011;-58
2023/03/21 00:28:38;;;;;;;158.43;38.75;;;9.20;99.90;;;;;;6210419;23;20016;-57
2023/03/21 00:31:06;;;;;;;126.53;38.33;;;9.20;99.90;;;;;;6210535;23;20067;-58
2023/03/21 00:33:33;;;;;;;175.80;41.60;;;9.20;99.90;;;;;;6233072;23;20115;-59
2023/03/21 00:35:59;;;;;;;129.40;35.97;;;9.20;99.90;;;;;;6210217;23;20044;-58
2023/03/21 00:38:26;;;;;;;132.38;36.60;;;9.20;99.90;;;;;;6210774;23;20078;-59
2023/03/21 00:40:52;;;;;;;125.88;37.88;;;9.20;99.90;;;;;;6209488;23;20009;-58
2023/03/21 00:43:22;;;;;;;109.78;34.53;;;9.20;99.90;;;;;;6211180;23;20469;-58
2023/03/21 00:45:49;;;;;;;88.82;30.42;;;9.30;99.90;;;;;;6209109;23;20013;-58
2023/03/21 00:48:15;;;;;;;82.03;29.65;;;9.20;99.90;;;;;;6208153;23;20204;-57
2023/03/21 00:50:44;;;;;;;78.00;28.45;;;9.20;99.90;;;;;;6209215;23;20023;-59
2023/03/21 00:53:10;;;;;;;66.28;24.88;;;9.20;99.90;;;;;;6184213;23;20050;-59
2023/03/21 00:55:37;;;;;;;58.92;23.88;;;9.20;99.90;;;;;;6207951;23;20020;-58
2023/03/21 00:58:04;;;;;;;61.83;26.02;;;9.30;99.90;;;;;;6211168;23;20454;-59
2023/03/21 01:00:31;;;;;;;69.80;26.60;;;9.20;99.90;;;;;;6210688;23;20047;-59
2023/03/21 01:03:04;;;;;;;64.13;26.80;;;9.30;99.90;;;;;;6210382;23;20428;-59
2023/03/21 01:08:18;;;;;;;73.57;29.00;;;9.30;99.90;;;;;;6209763;23;20016;-58
2023/03/21 01:10:45;;;;;;;85.35;30.45;;;9.30;99.90;;;;;;6208273;23;20028;-58
2023/03/21 01:13:13;;;;;;;96.20;33.13;;;9.30;99.90;;;;;;6210613;23;20012;-58
2023/03/21 01:15:48;;;;;;;95.72;34.70;;;9.30;99.90;;;;;;6210037;23;20017;-57
2023/03/21 01:18:15;;;;;;;100.78;32.60;;;9.20;99.90;;;;;;6210179;23;20542;-59
2023/03/21 01:20:42;;;;;;;100.85;34.58;;;9.30;99.90;;;;;;6209293;23;20078;-59
2023/03/21 01:23:09;;;;;;;106.53;31.88;;;9.30;99.90;;;;;;6210252;23;20016;-58
2023/03/21 01:25:35;;;;;;;102.43;34.17;;;9.30;99.90;;;;;;6211082;23;20036;-59
2023/03/21 01:28:01;;;;;;;101.05;33.35;;;9.30;99.90;;;;;;6210006;23;20257;-56
2023/03/21 01:30:27;;;;;;;102.00;33.83;;;9.30;99.90;;;;;;6210699;23;20047;-55
2023/03/21 01:32:52;;;;;;;97.28;33.08;;;9.30;99.90;;;;;;6210232;23;20531;-57
2023/03/21 01:35:18;;;;;;;89.65;32.10;;;9.30;99.90;;;;;;6211342;23;20012;-55
2023/03/21 01:37:44;;;;;;;86.60;31.35;;;9.30;99.90;;;;;;6210880;23;20052;-56
2023/03/21 01:40:16;;;;;;;101.18;32.13;;;9.30;99.90;;;;;;6210253;23;20087;-56
2023/03/21 01:42:42;;;;;;;81.68;31.17;;;9.30;99.90;;;;;;6210571;23;20016;-56
2023/03/21 01:45:45;;;;;;;80.15;29.65;;;9.30;99.90;;;;;;6208247;23;20521;-56
2023/03/21 01:48:12;;;;;;;75.85;30.15;;;9.20;99.90;;;;;;6182904;23;20016;-55
2023/03/21 01:50:39;;;;;;;74.65;29.35;;;9.20;99.90;;;;;;6211035;23;20016;-54
2023/03/21 01:53:05;;;;;;;72.57;28.52;;;9.20;99.90;;;;;;6210379;23;20495;-56
2023/03/21 01:55:32;;;;;;;69.05;28.15;;;9.20;99.90;;;;;;6209379;23;20091;-53
2023/03/21 01:58:00;;;;;;;64.50;27.10;;;9.20;99.90;;;;;;6183537;23;20023;-55
2023/03/21 02:00:28;;;;;;;70.18;29.17;;;9.20;99.90;;;;;;6209586;23;20009;-56
2023/03/21 02:02:56;;;;;;;66.07;28.17;;;9.20;99.90;;;;;;6208370;23;20017;-55
2023/03/21 02:05:50;;;;;;;52.45;24.85;;;9.20;99.90;;;;;;6206417;23;20342;-56
2023/03/21 02:08:15;;;;;;;52.60;24.33;;;9.20;99.90;;;;;;6209366;23;20091;-55
2023/03/21 02:10:44;;;;;;;54.83;24.92;;;9.20;99.90;;;;;;6210738;23;20048;-56
2023/03/21 02:13:10;;;;;;;56.08;24.73;;;9.30;99.90;;;;;;6209253;23;20017;-56
2023/03/21 02:15:46;;;;;;;49.60;22.80;;;9.30;99.90;;;;;;6210942;23;20458;-56
2023/03/21 02:18:39;;;;;;;51.15;22.33;;;9.20;99.90;;;;;;6210356;23;20186;-53
2023/03/21 02:21:29;;;;;;;46.30;21.83;;;9.30;99.90;;;;;;6208714;23;20012;-56
2023/03/21 02:24:13;;;;;;;45.85;21.67;;;9.30;99.90;;;;;;6210295;23;20103;-54
2023/03/21 02:27:23;;;;;;;43.35;21.60;;;9.30;99.90;;;;;;6210378;23;20382;-56
2023/03/21 02:30:21;;;;;;;43.15;20.95;;;9.20;99.90;;;;;;6209080;23;20343;-56
2023/03/21 02:33:13;;;;;;;42.33;20.98;;;9.30;99.90;;;;;;6209132;23;20012;-56
2023/03/21 02:36:11;;;;;;;44.95;20.98;;;9.30;99.90;;;;;;6210605;23;20473;-56
2023/03/21 02:39:00;;;;;;;39.55;19.70;;;9.30;99.90;;;;;;6209124;23;20441;-55
2023/03/21 02:41:40;;;;;;;42.22;19.75;;;9.20;99.90;;;;;;6213028;23;20074;-56
2023/03/21 02:44:36;;;;;;;40.65;19.52;;;9.30;99.90;;;;;;6212307;23;20032;-54
2023/03/21 02:47:37;;;;;;;38.67;18.63;;;9.30;99.90;;;;;;6210268;23;20024;-56
2023/03/21 02:50:23;;;;;;;41.05;18.73;;;9.30;99.90;;;;;;6205021;23;20017;-56
2023/03/21 02:52:51;;;;;;;37.67;18.83;;;9.30;99.90;;;;;;6210292;23;20012;-55
2023/03/21 02:55:23;;;;;;;40.22;18.40;;;9.20;99.90;;;;;;6186020;23;20175;-56
2023/03/21 02:57:51;;;;;;;39.65;18.48;;;9.20;99.90;;;;;;6210242;23;20021;-56
2023/03/21 03:00:20;;;;;;;37.17;17.38;;;9.30;99.90;;;;;;6210918;23;20203;-53
2023/03/21 03:02:48;;;;;;;39.08;17.80;;;9.30;99.90;;;;;;6210296;23;20022;-56
2023/03/21 03:05:19;;;;;;;38.50;17.83;;;9.30;99.90;;;;;;6209737;23;20020;-54
2023/03/21 03:07:54;;;;;;;38.45;18.15;;;9.30;99.90;;;;;;6210702;23;20016;-56
2023/03/21 03:10:42;;;;;;;39.03;17.45;;;9.30;99.90;;;;;;6210843;23;20477;-56
2023/03/21 03:13:45;;;;;;;45.70;19.33;;;9.30;99.90;;;;;;6212423;23;20009;-57
2023/03/21 03:16:18;;;;;;;53.08;20.85;;;9.30;99.90;;;;;;6210119;23;20179;-56
2023/03/21 03:18:54;;;;;;;48.08;21.20;;;9.30;99.90;;;;;;6208495;23;20024;-53
2023/03/21 03:21:35;;;;;;;73.80;23.20;;;9.20;99.90;;;;;;6211831;23;20012;-56
2023/03/21 03:24:04;;;;;;;44.53;19.40;;;9.30;99.90;;;;;;6210714;23;20012;-56
2023/03/21 03:26:32;;;;;;;51.38;18.55;;;9.20;99.90;;;;;;6209715;23;20013;-56
2023/03/21 03:29:19;;;;;;;51.05;20.33;;;9.20;99.90;;;;;;6211372;23;20027;-56
2023/03/21 03:31:50;;;;;;;60.17;20.33;;;9.30;99.90;;;;;;6211872;23;20465;-55
2023/03/21 03:34:20;;;;;;;47.55;20.50;;;9.30;99.90;;;;;;6211335;23;20019;-56
2023/03/21 03:36:55;;;;;;;53.22;19.88;;;9.30;99.90;;;;;;6211884;23;20330;-54
2023/03/21 03:39:26;;;;;;;48.53;19.77;;;9.20;99.90;;;;;;6210307;23;20075;-54
2023/03/21 03:42:05;;;;;;;49.58;20.48;;;9.30;99.90;;;;;;6211465;23;20016;-57
2023/03/21 03:44:32;;;;;;;43.67;20.10;;;9.30;99.90;;;;;;6184814;23;20406;-56
2023/03/21 03:47:03;;;;;;;44.15;19.30;;;9.30;99.90;;;;;;6210967;23;20150;-52
2023/03/21 03:49:35;;;;;;;50.80;20.35;;;9.30;99.90;;;;;;6209495;23;20020;-52
2023/03/21 03:52:08;;;;;;;49.33;20.00;;;9.30;99.90;;;;;;6211585;23;20008;-55
2023/03/21 03:54:39;;;;;;;52.17;19.85;;;9.30;99.90;;;;;;6211932;23;20088;-54
2023/03/21 03:57:06;;;;;;;41.88;18.48;;;9.30;99.90;;;;;;6210885;23;20021;-56
2023/03/21 03:59:36;;;;;;;50.92;19.63;;;9.30;99.90;;;;;;6234963;23;20394;-55
2023/03/21 04:02:03;;;;;;;55.00;19.17;;;9.30;99.90;;;;;;6211275;23;20454;-55
2023/03/21 04:04:30;;;;;;;47.28;19.17;;;9.30;99.90;;;;;;6211928;23;20326;-55
2023/03/21 04:06:56;;;;;;;44.65;19.10;;;9.30;99.90;;;;;;6210210;23;20048;-55
2023/03/21 04:09:24;;;;;;;48.88;19.02;;;9.30;99.90;;;;;;6210281;23;20024;-56
2023/03/21 04:11:50;;;;;;;50.38;18.77;;;9.30;99.90;;;;;;6210807;23;20016;-56
2023/03/21 04:14:16;;;;;;;49.78;19.63;;;9.30;99.90;;;;;;6208285;23;20008;-56
2023/03/21 04:16:41;;;;;;;55.10;19.50;;;9.30;99.90;;;;;;6211576;23;20048;-56
2023/03/21 04:19:08;;;;;;;48.53;19.30;;;9.30;99.90;;;;;;6209243;23;20346;-56
2023/03/21 04:21:34;;;;;;;64.03;21.55;;;9.30;99.90;;;;;;6211595;23;20012;-57
2023/03/21 04:24:00;;;;;;;49.55;18.73;;;9.30;99.90;;;;;;6211742;23;20024;-54
2023/03/21 04:26:31;;;;;;;62.78;20.65;;;9.30;99.90;;;;;;6211785;23;20480;-54
2023/03/21 04:29:01;;;;;;;53.55;19.45;;;9.30;99.90;;;;;;6209867;23;20449;-56
2023/03/21 04:31:30;;;;;;;58.55;20.20;;;9.30;99.90;;;;;;6209454;23;20087;-56
2023/03/21 04:34:00;;;;;;;62.08;20.45;;;9.30;99.90;;;;;;6206635;23;20083;-56
2023/03/21 04:36:29;;;;;;;53.33;19.35;;;9.30;99.90;;;;;;6209430;23;20017;-54
2023/03/21 04:38:59;;;;;;;58.33;20.33;;;9.30;99.90;;;;;;6206828;23;20021;-58
2023/03/21 04:41:28;;;;;;;53.92;18.60;;;9.30;99.90;;;;;;6233857;23;20012;-55
2023/03/21 04:43:54;;;;;;;51.60;17.85;;;9.30;99.90;;;;;;6181763;23;20103;-57
2023/03/21 04:46:21;;;;;;;50.22;18.27;;;9.30;99.90;;;;;;6183566;23;20012;-57
2023/03/21 04:48:47;;;;;;;52.85;19.20;;;9.30;99.90;;;;;;6210549;23;20453;-56
2023/03/21 04:51:14;;;;;;;47.15;17.63;;;9.30;99.90;;;;;;6211043;23;20204;-56
2023/03/21 04:53:43;;;;;;;47.40;17.27;;;9.30;99.90;;;;;;6211629;23;20010;-58
2023/03/21 04:56:10;;;;;;;43.90;17.10;;;9.30;99.90;;;;;;6209121;23;20024;-56
2023/03/21 04:58:36;;;;;;;47.75;18.67;;;9.40;99.90;;;;;;6210596;23;20017;-56
2023/03/21 05:01:04;;;;;;;41.80;18.05;;;9.40;99.90;;;;;;6208354;23;20457;-56
2023/03/21 05:03:33;;;;;;;38.88;17.05;;;9.40;99.90;;;;;;6211306;23;20017;-56
2023/03/21 05:06:00;;;;;;;35.30;16.73;;;9.40;99.90;;;;;;6210522;23;20076;-56
2023/03/21 05:08:27;;;;;;;38.88;17.35;;;9.40;99.90;;;;;;6210254;23;20020;-57
2023/03/21 05:10:53;;;;;;;38.30;17.88;;;9.40;99.90;;;;;;6184096;23;20016;-57
2023/03/21 05:13:18;;;;;;;34.42;16.85;;;9.40;99.90;;;;;;6210547;23;20096;-57
2023/03/21 05:15:44;;;;;;;36.03;16.70;;;9.40;99.90;;;;;;6184321;23;20043;-57
2023/03/21 05:18:10;;;;;;;32.47;16.65;;;9.40;99.90;;;;;;6210575;23;20084;-57
2023/03/21 05:20:41;;;;;;;37.10;18.05;;;9.40;99.90;;;;;;6211152;23;20472;-56
2023/03/21 05:23:11;;;;;;;35.25;17.00;;;9.40;99.90;;;;;;6210241;23;20074;-56
2023/03/21 05:25:38;;;;;;;36.10;17.08;;;9.40;99.90;;;;;;6209784;23;20015;-57
2023/03/21 05:28:06;;;;;;;35.85;16.95;;;9.40;99.90;;;;;;6208339;23;20020;-55
2023/03/21 05:30:31;;;;;;;32.72;16.48;;;9.40;99.90;;;;;;6211025;23;20025;-55
2023/03/21 05:32:58;;;;;;;33.28;16.58;;;9.40;99.90;;;;;;6210737;23;20012;-56
2023/03/21 05:35:23;;;;;;;35.47;16.73;;;9.40;99.90;;;;;;6184353;23;20584;-56
2023/03/21 05:37:49;;;;;;;32.10;16.27;;;9.40;99.90;;;;;;6209476;23;20086;-57
2023/03/21 05:40:15;;;;;;;34.03;17.08;;;9.40;99.90;;;;;;6208905;23;20031;-55
2023/03/21 05:42:41;;;;;;;39.13;17.17;;;9.40;99.90;;;;;;6211249;23;20389;-57
2023/03/21 05:45:07;;;;;;;32.03;16.77;;;9.40;99.90;;;;;;6208995;23;20523;-56
2023/03/21 05:47:33;;;;;;;34.58;16.27;;;9.40;99.90;;;;;;6208694;23;20239;-54
2023/03/21 05:49:58;;;;;;;37.83;18.15;;;9.40;99.90;;;;;;6207153;23;20021;-55
2023/03/21 05:52:24;;;;;;;35.40;18.08;;;9.40;99.90;;;;;;6210455;23;20039;-57
2023/03/21 05:54:50;;;;;;;37.08;18.70;;;9.50;99.90;;;;;;6211112;23;20024;-54
2023/03/21 05:57:18;;;;;;;36.63;17.20;;;9.40;99.90;;;;;;6209231;23;20472;-55
2023/03/21 05:59:44;;;;;;;35.58;17.48;;;9.50;99.90;;;;;;6234365;23;20027;-56
2023/03/21 06:02:10;;;;;;;35.00;16.67;;;9.50;99.90;;;;;;6209976;23;20008;-56
2023/03/21 06:04:36;;;;;;;34.78;16.65;;;9.40;99.90;;;;;;6208148;23;20319;-56
2023/03/21 06:07:02;;;;;;;35.72;17.60;;;9.50;99.90;;;;;;6210646;23;20013;-55
2023/03/21 06:09:29;;;;;;;41.10;19.45;;;9.50;99.90;;;;;;6234261;23;20009;-57
2023/03/21 06:11:56;;;;;;;35.25;18.05;;;9.50;99.90;;;;;;6209178;23;20598;-58
2023/03/21 06:14:22;;;;;;;32.03;16.38;;;9.50;99.90;;;;;;6209019;23;20015;-56
2023/03/21 06:16:49;;;;;;;32.55;16.35;;;9.50;99.90;;;;;;6210814;23;20018;-56
2023/03/21 06:19:15;;;;;;;35.47;17.40;;;9.50;99.90;;;;;;6183361;23;20013;-56
2023/03/21 06:21:41;;;;;;;32.10;16.90;;;9.50;99.90;;;;;;6209068;23;20008;-55
2023/03/21 06:24:08;;;;;;;30.83;16.35;;;9.50;99.90;;;;;;6208725;23;20066;-56
2023/03/21 06:26:34;;;;;;;35.35;18.27;;;9.50;99.90;;;;;;6208517;23;20013;-56
2023/03/21 06:29:00;;;;;;;34.03;18.65;;;9.50;99.90;;;;;;6210314;23;20036;-55
2023/03/21 06:31:26;;;;;;;36.85;18.98;;;9.50;99.90;;;;;;6206748;23;20017;-55
2023/03/21 06:33:52;;;;;;;31.50;17.92;;;9.50;99.90;;;;;;6208898;23;20020;-55
2023/03/21 06:36:18;;;;;;;35.53;18.63;;;9.50;99.90;;;;;;6209218;23;20074;-57
2023/03/21 06:38:45;;;;;;;42.65;20.25;;;9.50;99.90;;;;;;6210743;23;20024;-57
2023/03/21 06:41:12;;;;;;;37.05;19.08;;;9.60;99.90;;;;;;6209676;23;20019;-56
2023/03/21 06:43:37;;;;;;;35.03;19.25;;;9.60;99.90;;;;;;6208406;23;20023;-55
2023/03/21 06:46:04;;;;;;;36.95;18.65;;;9.60;99.90;;;;;;6208508;23;20450;-55
2023/03/21 06:48:30;;;;;;;36.88;19.73;;;9.60;99.90;;;;;;6210048;23;20013;-56
2023/03/21 06:50:56;;;;;;;34.72;18.00;;;9.60;99.90;;;;;;6210928;23;20468;-54
2023/03/21 06:53:26;;;;;;;32.13;18.63;;;9.60;99.90;;;;;;6210216;23;20047;-56
2023/03/21 06:55:53;;;;;;;30.70;18.17;;;9.60;99.90;;;;;;6211970;23;20008;-56
2023/03/21 06:58:19;;;;;;;34.80;19.20;;;9.60;99.90;;;;;;6183304;23;20082;-56
2023/03/21 07:00:45;;;;;;;31.30;17.85;;;9.60;99.90;;;;;;6209063;23;20396;-55
2023/03/21 07:03:11;;;;;;;32.65;17.73;;;9.60;99.90;;;;;;6209691;23;20008;-54
2023/03/21 07:05:38;;;;;;;32.08;18.30;;;9.60;99.90;;;;;;6233345;22;20024;-53
2023/03/21 07:08:05;;;;;;;31.63;18.08;;;9.60;99.90;;;;;;6207962;23;20020;-57
2023/03/21 07:10:30;;;;;;;30.50;17.95;;;9.60;99.90;;;;;;6208515;23;20485;-57
2023/03/21 07:12:59;;;;;;;30.08;17.92;;;9.60;99.90;;;;;;6209103;23;20009;-56
2023/03/21 07:15:25;;;;;;;30.30;16.88;;;9.60;99.90;;;;;;6210953;23;20024;-57
2023/03/21 07:17:51;;;;;;;29.00;18.30;;;9.60;99.90;;;;;;6183653;23;20469;-56
2023/03/21 07:20:17;;;;;;;32.10;18.63;;;9.60;99.90;;;;;;6208120;23;20035;-55
2023/03/21 07:22:43;;;;;;;31.13;18.58;;;9.60;99.90;;;;;;6210233;23;20040;-56
2023/03/21 07:25:09;;;;;;;34.28;18.85;;;9.60;99.90;;;;;;6210610;23;20331;-53
2023/03/21 07:27:35;;;;;;;27.15;17.63;;;9.60;99.90;;;;;;6210251;23;20323;-55
2023/03/21 07:30:05;;;;;;;28.52;16.70;;;9.60;99.90;;;;;;6185610;23;20473;-56
2023/03/21 07:32:36;;;;;;;25.50;16.42;;;9.60;99.90;;;;;;6211933;23;20013;-57
2023/03/21 07:35:02;;;;;;;30.67;16.98;;;9.60;99.90;;;;;;6212348;23;20016;-58
2023/03/21 07:37:28;;;;;;;30.10;17.60;;;9.60;99.90;;;;;;6210321;23;20075;-57
2023/03/21 07:39:54;;;;;;;23.83;15.70;;;9.60;99.90;;;;;;6210751;23;20063;-58
2023/03/21 07:42:20;;;;;;;23.77;15.05;;;9.60;99.90;;;;;;6185459;23;20339;-56
2023/03/21 07:44:46;;;;;;;21.83;15.23;;;9.60;99.90;;;;;;6212523;23;20016;-58
2023/03/21 07:47:11;;;;;;;23.65;14.70;;;9.60;99.90;;;;;;6211006;23;20023;-58
2023/03/21 07:49:37;;;;;;;22.67;14.43;;;9.70;99.90;;;;;;6211678;23;20091;-57
2023/03/21 07:52:04;;;;;;;19.70;13.40;;;9.60;99.90;;;;;;6212511;23;20016;-57
2023/03/21 07:54:29;;;;;;;18.98;12.77;;;9.60;99.90;;;;;;6213230;23;20386;-58
2023/03/21 07:56:56;;;;;;;18.98;12.88;;;9.60;99.90;;;;;;6211365;23;20267;-58
2023/03/21 07:59:22;;;;;;;19.25;12.98;;;9.60;99.90;;;;;;6209312;23;20023;-58
2023/03/21 08:01:48;;;;;;;19.95;12.77;;;9.60;99.90;;;;;;6209607;23;20016;-58
2023/03/21 08:04:14;;;;;;;21.50;14.10;;;9.60;99.90;;;;;;6207882;23;20038;-58
2023/03/21 08:06:40;;;;;;;23.65;15.07;;;9.70;99.90;;;;;;6210662;23;20020;-59
2023/03/21 08:09:06;;;;;;;28.27;16.52;;;9.60;99.90;;;;;;6208824;23;20013;-59
2023/03/21 08:11:32;;;;;;;29.58;19.13;;;9.70;99.90;;;;;;6184072;23;20023;-59
2023/03/21 08:14:00;;;;;;;27.70;17.50;;;9.60;99.90;;;;;;6210610;23;20016;-58
2023/03/21 08:16:26;;;;;;;29.00;18.05;;;9.60;99.90;;;;;;6208814;23;20017;-58
2023/03/21 08:18:52;;;;;;;29.25;18.77;;;9.60;99.90;;;;;;6234065;23;20036;-57
2023/03/21 08:21:18;;;;;;;25.73;17.00;;;9.60;99.90;;;;;;6206592;23;20017;-58
2023/03/21 08:23:44;;;;;;;29.25;19.25;;;9.70;99.90;;;;;;6210546;23;20019;-59
2023/03/21 08:26:10;;;;;;;32.05;19.38;;;9.70;99.90;;;;;;6208751;23;20354;-57
2023/03/21 08:28:38;;;;;;;29.90;19.08;;;9.70;99.90;;;;;;6210983;23;20370;-58
2023/03/21 08:31:08;;;;;;;29.70;18.25;;;9.70;99.90;;;;;;6209756;23;20027;-59
2023/03/21 08:33:34;;;;;;;27.17;18.67;;;9.70;99.90;;;;;;6209401;23;20013;-57
2023/03/21 08:36:00;;;;;;;33.13;21.92;;;9.70;99.90;;;;;;6211091;23;20008;-58
2023/03/21 08:38:28;;;;;;;30.63;20.02;;;9.70;99.90;;;;;;6211069;23;20044;-59
2023/03/21 08:40:55;;;;;;;31.05;20.13;;;9.80;99.90;;;;;;6210587;23;20024;-57
2023/03/21 08:43:21;;;;;;;32.63;21.15;;;9.80;99.90;;;;;;6210218;23;20009;-58
2023/03/21 08:45:48;;;;;;;29.38;21.10;;;9.80;99.90;;;;;;6209335;23;20012;-58
2023/03/21 08:48:14;;;;;;;30.27;21.30;;;9.80;99.90;;;;;;6207865;23;20024;-59
2023/03/21 08:50:40;;;;;;;32.88;22.63;;;9.80;99.90;;;;;;6235547;23;20139;-58
2023/03/21 08:53:05;;;;;;;34.72;23.35;;;9.80;99.90;;;;;;6210185;23;20016;-57
2023/03/21 08:55:32;;;;;;;37.50;24.30;;;9.80;99.90;;;;;;6210200;23;20100;-56
2023/03/21 08:57:58;;;;;;;41.33;25.13;;;9.80;99.90;;;;;;6210819;23;20016;-59
2023/03/21 09:00:24;;;;;;;38.63;25.40;;;9.80;99.90;;;;;;6209282;23;20020;-58
2023/03/21 09:02:53;;;;;;;38.97;24.38;;;9.90;99.90;;;;;;6212341;23;20023;-59
2023/03/21 09:05:19;;;;;;;36.15;24.23;;;9.90;99.90;;;;;;6209177;23;20013;-58
2023/03/21 09:07:46;;;;;;;35.65;22.92;;;9.90;99.90;;;;;;6209292;23;20021;-59
2023/03/21 09:10:17;;;;;;;34.38;22.85;;;9.90;99.90;;;;;;6206198;23;20017;-59
2023/03/21 09:12:43;;;;;;;36.08;22.13;;;10.00;99.90;;;;;;6206549;23;20016;-57
2023/03/21 09:15:11;;;;;;;33.35;21.35;;;10.00;99.90;;;;;;6210460;23;20020;-58
2023/03/21 09:17:41;;;;;;;31.73;21.20;;;10.00;99.90;;;;;;6209529;23;20488;-57
2023/03/21 09:20:17;;;;;;;32.30;20.80;;;10.00;99.90;;;;;;6208337;23;20067;-59
2023/03/21 09:22:45;;;;;;;36.58;21.67;;;10.00;99.90;;;;;;6206169;23;20013;-58
2023/03/21 09:25:12;;;;;;;31.70;20.98;;;10.00;99.90;;;;;;6182368;23;20008;-57
2023/03/21 09:27:38;;;;;;;32.55;20.77;;;10.10;99.90;;;;;;6208021;23;20464;-57
2023/03/21 09:30:06;;;;;;;29.35;19.85;;;10.10;99.90;;;;;;6182614;23;20052;-59
2023/03/21 09:32:32;;;;;;;30.77;21.38;;;10.10;99.90;;;;;;6181988;23;20016;-59
2023/03/21 09:34:59;;;;;;;32.33;21.77;;;10.10;99.90;;;;;;6208843;23;20142;-58
2023/03/21 09:37:24;;;;;;;35.72;22.65;;;10.10;99.90;;;;;;6209666;23;20013;-59
2023/03/21 09:39:51;;;;;;;29.00;21.92;;;10.10;99.90;;;;;;6210279;23;20017;-58
2023/03/21 09:42:16;;;;;;;33.25;22.33;;;10.10;99.90;;;;;;6207604;23;20013;-57
2023/03/21 09:44:53;;;;;;;33.40;21.83;;;10.10;99.90;;;;;;6209837;23;20071;-57
2023/03/21 09:47:23;;;;;;;33.33;21.38;;;10.10;99.90;;;;;;6208658;23;20171;-59
2023/03/21 09:50:01;;;;;;;31.42;21.65;;;10.10;99.90;;;;;;6183377;23;20020;-58
2023/03/21 09:52:42;;;;;;;32.55;21.25;;;10.20;99.90;;;;;;6182008;23;20293;-58
2023/03/21 09:55:23;;;;;;;36.67;21.85;;;10.10;99.90;;;;;;6183734;23;20035;-57
2023/03/21 09:58:08;;;;;;;36.47;21.02;;;10.10;99.90;;;;;;6211171;23;20052;-56
2023/03/21 10:00:38;;;;;;;30.63;19.27;;;10.10;99.90;;;;;;6208443;23;20556;-58
2023/03/21 10:03:23;;;;;;;30.00;18.70;;;10.10;99.90;;;;;;6206869;23;20071;-56
2023/03/21 10:05:51;;;;;;;32.17;19.90;;;10.10;99.90;;;;;;6210853;23;20008;-56
2023/03/21 10:08:26;;;;;;;25.35;16.13;;;10.20;99.90;;;;;;6208566;23;20082;-57
2023/03/21 10:11:01;;;;;;;33.47;18.67;;;10.20;99.90;;;;;;6210163;23;20101;-55
2023/03/21 10:13:31;;;;;;;30.27;18.33;;;10.20;99.90;;;;;;6206508;23;20016;-57
2023/03/21 10:16:00;;;;;;;25.60;16.90;;;10.30;99.90;;;;;;6208069;23;20064;-57
2023/03/21 10:18:29;;;;;;;28.70;16.95;;;10.40;99.90;;;;;;6178256;23;20353;-58
2023/03/21 10:20:56;;;;;;;25.90;16.83;;;10.50;99.90;;;;;;6181662;23;20017;-58
2023/03/21 10:23:27;;;;;;;26.55;16.17;;;10.50;99.90;;;;;;6207129;23;20067;-58
2023/03/21 10:25:59;;;;;;;22.65;15.50;;;10.50;99.90;;;;;;6207666;23;20066;-58
2023/03/21 10:28:32;;;;;;;24.90;15.32;;;10.50;99.90;;;;;;6208511;23;20008;-58
2023/03/21 10:31:05;;;;;;;26.67;16.58;;;10.50;99.90;;;;;;6233604;23;20058;-57
2023/03/21 10:33:44;;;;;;;22.33;15.85;;;10.60;99.90;;;;;;6206426;23;20508;-59
2023/03/21 10:36:19;;;;;;;25.83;17.05;;;10.70;99.90;;;;;;6209203;23;20062;-57
2023/03/21 10:39:06;;;;;;;27.50;16.70;;;10.90;99.90;;;;;;6209932;23;20013;-59
2023/03/21 10:41:32;;;;;;;21.17;13.80;;;11.00;99.90;;;;;;6207586;23;20008;-59
2023/03/21 10:44:13;;;;;;;20.08;14.07;;;11.00;99.90;;;;;;6205828;23;20047;-59
2023/03/21 10:46:54;;;;;;;20.55;13.13;;;11.10;99.90;;;;;;6208181;23;20012;-59
2023/03/21 10:49:20;;;;;;;24.73;13.50;;;11.20;99.90;;;;;;6207527;23;20024;-58
2023/03/21 10:51:51;;;;;;;24.90;13.25;;;11.20;99.90;;;;;;6209929;23;20488;-58
2023/03/21 10:54:20;;;;;;;20.45;11.77;;;11.30;99.90;;;;;;6204838;23;20469;-58
2023/03/21 10:57:07;;;;;;;20.85;11.48;;;11.20;99.90;;;;;;6203978;23;20016;-56
2023/03/21 10:59:42;;;;;;;16.90;11.25;;;11.30;99.90;;;;;;6207759;23;20013;-56
2023/03/21 11:02:33;;;;;;;16.25;10.07;;;11.30;99.90;;;;;;6204947;23;20019;-58
2023/03/21 11:05:21;;;;;;;17.27;11.10;;;11.20;99.90;;;;;;6211494;23;20417;-57
2023/03/21 11:07:56;;;;;;;19.20;12.15;;;11.30;99.90;;;;;;6209146;23;20012;-58
2023/03/21 11:10:34;;;;;;;19.60;10.55;;;11.30;99.90;;;;;;6211487;23;20008;-58
2023/03/21 11:13:16;;;;;;;20.80;11.95;;;11.30;99.90;;;;;;6208982;23;20021;-56
2023/03/21 11:15:57;;;;;;;19.13;11.23;;;11.40;99.90;;;;;;6210853;23;20020;-58
2023/03/21 11:18:25;;;;;;;16.50;10.90;;;11.40;99.90;;;;;;6210277;23;20446;-58
2023/03/21 11:20:57;;;;;;;18.85;11.13;;;11.40;99.90;;;;;;6183571;23;20092;-59
2023/03/21 11:23:29;;;;;;;16.00;10.50;;;11.40;99.90;;;;;;6209034;23;20012;-57
2023/03/21 11:25:57;;;;;;;19.35;11.30;;;11.50;99.90;;;;;;6211272;23;20012;-58
2023/03/21 11:28:32;;;;;;;20.40;10.93;;;11.50;99.90;;;;;;6210618;23;20017;-57
2023/03/21 11:31:00;;;;;;;19.13;10.85;;;11.50;99.90;;;;;;6211462;23;20103;-59
2023/03/21 11:33:32;;;;;;;21.30;10.60;;;11.50;99.90;;;;;;6209721;23;20025;-59
2023/03/21 11:36:04;;;;;;;20.90;11.70;;;11.60;99.90;;;;;;6210088;23;20059;-58
2023/03/21 11:38:38;;;;;;;21.52;11.13;;;11.60;99.90;;;;;;6211254;23;20016;-59
2023/03/21 11:41:06;;;;;;;17.05;10.90;;;11.60;99.90;;;;;;6233836;23;20052;-57
2023/03/21 11:43:37;;;;;;;17.17;10.13;;;11.60;99.90;;;;;;6212390;23;20079;-57
2023/03/21 11:46:03;;;;;;;17.50;10.20;;;11.60;99.90;;;;;;6211791;23;20012;-60
2023/03/21 11:48:29;;;;;;;17.88;10.88;;;11.60;99.90;;;;;;6210425;23;20012;-61
2023/03/21 11:51:03;;;;;;;17.10;10.75;;;11.60;99.90;;;;;;6184623;23;20021;-60
2023/03/21 11:53:50;;;;;;;14.32;9.50;;;11.60;99.90;;;;;;6208484;23;20034;-56
2023/03/21 11:56:30;;;;;;;15.57;10.35;;;11.60;99.90;;;;;;6205614;23;20456;-60
2023/03/21 11:59:14;;;;;;;18.23;10.00;;;11.60;99.90;;;;;;6209710;23;20047;-58
2023/03/21 12:01:56;;;;;;;17.60;10.38;;;11.60;99.90;;;;;;6205509;23;20019;-58
2023/03/21 12:04:50;;;;;;;17.45;9.85;;;11.60;99.90;;;;;;6205205;23;20012;-58
2023/03/21 12:07:38;;;;;;;19.52;11.07;;;11.60;99.90;;;;;;6207048;23;20044;-57
2023/03/21 12:10:07;;;;;;;16.77;10.10;;;11.50;99.90;;;;;;6206591;23;20013;-60
2023/03/21 12:12:41;;;;;;;16.85;10.57;;;11.50;99.90;;;;;;6207622;23;20624;-58
2023/03/21 12:15:29;;;;;;;19.00;11.68;;;11.50;99.90;;;;;;6207672;23;20458;-55
2023/03/21 12:18:20;;;;;;;19.77;10.88;;;11.50;99.90;;;;;;6211672;23;20023;-58
2023/03/21 12:20:55;;;;;;;19.20;10.85;;;11.50;99.90;;;;;;6209441;23;20082;-58
2023/03/21 12:23:23;;;;;;;16.80;9.60;;;11.40;99.90;;;;;;6209850;23;20015;-60
2023/03/21 12:26:22;;;;;;;16.63;10.50;;;11.40;99.90;;;;;;6212151;23;20012;-57
2023/03/21 12:29:06;;;;;;;18.67;11.05;;;11.40;99.90;;;;;;6184846;23;20023;-60
2023/03/21 12:31:57;;;;;;;16.58;10.35;;;11.40;99.90;;;;;;6210692;23;20358;-57
2023/03/21 12:34:26;;;;;;;15.98;10.35;;;11.50;99.90;;;;;;6211637;23;20325;-60
2023/03/21 12:37:30;;;;;;;14.35;10.48;;;11.50;99.90;;;;;;6185130;23;20047;-60
2023/03/21 12:40:23;;;;;;;18.52;10.38;;;11.60;99.90;;;;;;6184773;23;20017;-60
2023/03/21 12:43:07;;;;;;;22.05;11.32;;;11.70;99.90;;;;;;6185136;23;20023;-57
2023/03/21 12:45:35;;;;;;;;;;;11.80;99.90;;;;;;6213410;23;20044;-59
2023/03/21 12:48:19;;;;;;;19.75;12.43;;;11.80;99.90;;;;;;6210818;23;19978;-60
2023/03/21 12:50:49;;;;;;;22.85;13.60;;;11.80;99.90;;;;;;6211099;23;20338;-60
2023/03/21 12:53:33;;;;;;;17.25;12.18;;;11.90;99.90;;;;;;6210415;23;20090;-59
2023/03/21 12:56:04;;;;;;;21.27;13.15;;;11.90;99.90;;;;;;6211742;23;20012;-60